Terminal Aerodrome Forecast
Issued by NWS

Home | Current Version | Previous Version | Text Only | Print | Product List | Glossary On
Versions: 1 2 3 4 5 6 7 8 9 10 11 12 13 14 15 16 17 18 19 20 21 22 23 24 25 26 27 28 29 30 31 32 33 34 35 36 37 38
368
FTUS43 KDMX 092338
TAFMCW
TAF
KMCW 092338Z 1000/1024 29006KT P6SM OVC060
     FM101100 35004KT P6SM OVC050
     FM101500 07004KT 3SM -SN OVC040
     FM101800 12008KT 1SM -SN OVC015=

USA.gov is the U.S. government's official web portal to all federal, state and local government web resources and services.